Time;durP1;ratioP1;P1;durP2;ratioP2;P2;SDS_P1;SDS_P2;PMS_P1;PMS_P2;Temp;Humidity;BMP_temperature;BMP_pressure;BME280_temperature;BME280_humidity;BME280_pressure;Samples;Min_cycle;Max_cycle;Signal;HPM_P1;HPM_P2
2022/05/28 00:00:17;;;;;;;2.03;1.60;;;;;;;;;;5010818;28;20181;-83
2022/05/28 00:03:21;;;;;;;2.23;1.90;;;;;;;;;;4999680;28;20181;-83
2022/05/28 00:06:29;;;;;;;6.40;2.00;;;;;;;;;;5009792;28;20703;-83
2022/05/28 00:09:32;;;;;;;2.50;1.90;;;;;;;;;;4999528;28;20181;-84
2022/05/28 00:12:37;;;;;;;2.60;1.93;;;;;;;;;;4999440;28;20185;-83
2022/05/28 00:15:41;;;;;;;2.70;1.60;;;;;;;;;;4999099;28;20228;-83
2022/05/28 00:18:47;;;;;;;3.90;1.97;;;;;;;;;;4999524;28;20180;-83
2022/05/28 00:21:51;;;;;;;3.63;1.97;;;;;;;;;;4999268;28;20176;-83
2022/05/28 00:24:56;;;;;;;2.03;1.70;;;;;;;;;;4999442;28;20220;-83
2022/05/28 00:28:00;;;;;;;2.43;1.80;;;;;;;;;;4999258;28;20181;-83
2022/05/28 00:31:05;;;;;;;3.07;1.80;;;;;;;;;;5010476;28;20524;-83
2022/05/28 00:34:09;;;;;;;2.93;1.73;;;;;;;;;;5021545;28;20180;-83
2022/05/28 00:37:13;;;;;;;2.60;2.10;;;;;;;;;;4999172;28;20172;-83
2022/05/28 00:40:24;;;;;;;3.40;2.30;;;;;;;;;;5010600;28;20177;-83
2022/05/28 00:43:29;;;;;;;2.07;1.80;;;;;;;;;;5010480;28;20181;-83
2022/05/28 00:46:33;;;;;;;3.77;1.93;;;;;;;;;;5021807;28;20691;-83
2022/05/28 00:49:38;;;;;;;3.00;1.90;;;;;;;;;;5021482;28;20185;-82
2022/05/28 00:52:42;;;;;;;2.07;1.87;;;;;;;;;;5010115;28;20189;-83
2022/05/28 00:55:46;;;;;;;3.07;2.00;;;;;;;;;;5010243;28;20216;-83
2022/05/28 00:58:51;;;;;;;3.33;2.17;;;;;;;;;;5010036;28;20193;-83
2022/05/28 01:02:00;;;;;;;3.07;2.10;;;;;;;;;;5010443;28;20643;-83
2022/05/28 01:05:29;;;;;;;2.70;2.13;;;;;;;;;;4998968;28;20220;-83
2022/05/28 01:09:09;;;;;;;3.03;1.80;;;;;;;;;;5021953;28;20180;-83
2022/05/28 01:12:21;;;;;;;3.50;2.20;;;;;;;;;;5005852;28;20666;-83
2022/05/28 01:15:35;;;;;;;3.47;2.23;;;;;;;;;;5020801;28;20225;-83
2022/05/28 01:18:45;;;;;;;3.47;2.00;;;;;;;;;;5000273;28;20182;-83
2022/05/28 01:22:01;;;;;;;4.33;1.90;;;;;;;;;;5002426;28;20181;-82
2022/05/28 01:25:11;;;;;;;4.50;2.20;;;;;;;;;;5013468;28;20217;-83
2022/05/28 01:28:19;;;;;;;3.77;2.10;;;;;;;;;;5002103;28;20177;-83
2022/05/28 01:31:25;;;;;;;2.57;2.00;;;;;;;;;;5024680;28;20180;-82
2022/05/28 01:34:30;;;;;;;3.47;2.27;;;;;;;;;;5024510;28;20181;-83
2022/05/28 01:37:35;;;;;;;3.90;2.00;;;;;;;;;;5024787;28;20604;-83
2022/05/28 01:40:41;;;;;;;3.07;1.87;;;;;;;;;;5002525;28;20185;-83
2022/05/28 01:43:47;;;;;;;5.90;2.07;;;;;;;;;;5024691;28;20180;-83
2022/05/28 01:46:53;;;;;;;6.57;2.10;;;;;;;;;;5002726;28;20217;-82
2022/05/28 01:49:58;;;;;;;3.43;1.80;;;;;;;;;;5014082;28;20520;-82
2022/05/28 01:53:06;;;;;;;5.03;1.80;;;;;;;;;;5013476;28;20177;-83
2022/05/28 01:56:10;;;;;;;5.33;1.93;;;;;;;;;;5012811;28;20208;-83
2022/05/28 01:59:25;;;;;;;8.17;2.10;;;;;;;;;;5012726;28;20181;-83
2022/05/28 02:02:29;;;;;;;5.40;1.80;;;;;;;;;;5001800;28;20178;-83
2022/05/28 02:05:33;;;;;;;3.80;2.27;;;;;;;;;;5012674;28;20216;-83
2022/05/28 02:08:42;;;;;;;3.97;1.87;;;;;;;;;;5012989;28;20177;-83
2022/05/28 02:12:09;;;;;;;6.67;1.90;;;;;;;;;;5024001;28;20181;-83
2022/05/28 02:15:27;;;;;;;4.87;2.00;;;;;;;;;;5012134;28;20225;-83
2022/05/28 02:18:58;;;;;;;6.03;2.03;;;;;;;;;;5001361;28;20177;-83
2022/05/28 02:22:33;;;;;;;7.53;2.03;;;;;;;;;;5012834;28;20524;-83
2022/05/28 02:26:22;;;;;;;5.07;2.00;;;;;;;;;;5014833;28;20580;-82
2022/05/28 02:29:27;;;;;;;4.23;1.80;;;;;;;;;;5003943;28;20208;-82
2022/05/28 02:32:31;;;;;;;4.40;1.57;;;;;;;;;;5012390;28;20181;-83
2022/05/28 02:35:35;;;;;;;4.40;1.93;;;;;;;;;;5000929;28;20216;-83
2022/05/28 02:38:39;;;;;;;4.27;2.00;;;;;;;;;;5000830;28;20192;-82
2022/05/28 02:41:43;;;;;;;5.33;2.03;;;;;;;;;;5001019;28;20176;-82
2022/05/28 02:44:48;;;;;;;5.23;1.93;;;;;;;;;;5012320;28;20181;-83
2022/05/28 02:47:52;;;;;;;3.67;1.40;;;;;;;;;;5000667;28;20540;-83
2022/05/28 02:51:10;;;;;;;4.90;1.93;;;;;;;;;;5001722;28;20540;-83
2022/05/28 02:54:14;;;;;;;3.57;1.60;;;;;;;;;;5013214;28;20525;-83
2022/05/28 02:57:18;;;;;;;4.33;1.90;;;;;;;;;;5002238;28;20628;-83
2022/05/28 03:00:22;;;;;;;5.23;2.00;;;;;;;;;;5012974;28;20208;-83
2022/05/28 03:03:27;;;;;;;4.27;2.00;;;;;;;;;;5013457;28;20196;-84
2022/05/28 03:06:31;;;;;;;7.80;2.57;;;;;;;;;;5002157;28;20217;-83
2022/05/28 03:09:35;;;;;;;5.83;2.37;;;;;;;;;;5002127;28;20635;-84
2022/05/28 03:12:40;;;;;;;3.67;1.87;;;;;;;;;;5001922;28;20181;-83
2022/05/28 03:15:44;;;;;;;4.97;2.10;;;;;;;;;;5023881;28;20221;-84
2022/05/28 03:18:48;;;;;;;6.73;2.10;;;;;;;;;;5013432;28;20176;-83
2022/05/28 03:21:52;;;;;;;6.53;2.23;;;;;;;;;;5002235;28;20185;-83
2022/05/28 03:24:57;;;;;;;4.77;2.10;;;;;;;;;;5023977;28;20572;-83
2022/05/28 03:28:01;;;;;;;4.93;2.00;;;;;;;;;;5023738;28;20220;-85
2022/05/28 03:31:06;;;;;;;4.03;2.00;;;;;;;;;;5001769;28;20181;-83
2022/05/28 03:34:10;;;;;;;5.63;2.30;;;;;;;;;;5001256;28;20177;-83
2022/05/28 03:37:14;;;;;;;4.07;1.90;;;;;;;;;;5023225;28;20172;-84
2022/05/28 03:40:18;;;;;;;5.57;1.90;;;;;;;;;;5001713;28;20180;-83
2022/05/28 03:43:23;;;;;;;5.43;1.80;;;;;;;;;;5011570;28;20180;-83
2022/05/28 03:46:30;;;;;;;4.20;1.90;;;;;;;;;;5000648;28;20216;-83
2022/05/28 03:49:37;;;;;;;9.83;1.93;;;;;;;;;;5012088;28;20173;-84
2022/05/28 03:52:42;;;;;;;9.10;2.47;;;;;;;;;;5001246;28;20180;-84
2022/05/28 03:55:46;;;;;;;5.20;1.93;;;;;;;;;;5023726;28;20216;-83
2022/05/28 03:58:50;;;;;;;6.43;1.70;;;;;;;;;;5023180;28;20177;-83
2022/05/28 04:01:54;;;;;;;6.60;2.60;;;;;;;;;;5000681;28;20181;-83
2022/05/28 04:04:59;;;;;;;6.43;2.37;;;;;;;;;;5012041;28;20216;-83
2022/05/28 04:08:04;;;;;;;5.23;2.20;;;;;;;;;;5000819;28;20208;-84
2022/05/28 04:11:08;;;;;;;6.83;2.23;;;;;;;;;;5012336;28;20204;-83
2022/05/28 04:14:12;;;;;;;6.63;2.13;;;;;;;;;;5011747;28;20184;-83
2022/05/28 04:17:16;;;;;;;8.90;2.10;;;;;;;;;;5023314;28;20165;-83
2022/05/28 04:20:21;;;;;;;5.03;1.93;;;;;;;;;;5011663;28;20185;-83
2022/05/28 04:23:25;;;;;;;4.53;2.00;;;;;;;;;;5001104;28;20177;-83
2022/05/28 04:26:29;;;;;;;5.37;1.90;;;;;;;;;;5011564;28;20212;-86
2022/05/28 04:29:34;;;;;;;8.33;2.50;;;;;;;;;;5011439;28;20652;-85
2022/05/28 04:32:38;;;;;;;8.40;2.40;;;;;;;;;;5023501;28;20180;-86
2022/05/28 04:35:42;;;;;;;6.43;2.30;;;;;;;;;;5001034;28;20687;-85
2022/05/28 04:38:47;;;;;;;6.67;2.43;;;;;;;;;;5012459;28;20176;-85
2022/05/28 04:41:51;;;;;;;14.00;3.77;;;;;;;;;;5011595;28;20180;-86
2022/05/28 04:44:56;;;;;;;9.33;2.50;;;;;;;;;;5000664;28;20571;-85
2022/05/28 04:48:00;;;;;;;9.53;1.90;;;;;;;;;;5000237;28;20668;-85
2022/05/28 04:51:04;;;;;;;8.80;1.97;;;;;;;;;;5022417;28;20631;-86
2022/05/28 04:54:09;;;;;;;7.47;2.20;;;;;;;;;;5013438;28;20540;-86
2022/05/28 04:57:14;;;;;;;4.13;1.90;;;;;;;;;;5004128;28;20193;-85
2022/05/28 05:00:22;;;;;;;7.17;1.67;;;;;;;;;;5015017;28;20196;-85
2022/05/28 05:03:26;;;;;;;9.00;2.30;;;;;;;;;;5015580;28;20201;-85
2022/05/28 05:06:30;;;;;;;9.13;2.17;;;;;;;;;;5004404;28;20212;-85
2022/05/28 05:09:34;;;;;;;6.57;1.87;;;;;;;;;;5015733;28;20177;-85
2022/05/28 05:12:38;;;;;;;8.07;1.97;;;;;;;;;;5027133;28;20185;-84
2022/05/28 05:15:43;;;;;;;7.03;2.23;;;;;;;;;;5034898;23;20236;-85
2022/05/28 05:18:47;;;;;;;6.13;2.00;;;;;;;;;;5034006;28;20164;-85
2022/05/28 05:21:54;;;;;;;6.50;2.17;;;;;;;;;;5045153;28;20215;-85
2022/05/28 05:24:59;;;;;;;5.27;1.50;;;;;;;;;;5022592;28;20180;-85
2022/05/28 05:28:03;;;;;;;5.47;1.90;;;;;;;;;;5044758;28;20212;-85
2022/05/28 05:31:08;;;;;;;6.87;2.00;;;;;;;;;;5022314;28;20623;-85
2022/05/28 05:34:11;;;;;;;7.00;1.90;;;;;;;;;;5022607;28;20627;-85
2022/05/28 05:37:16;;;;;;;6.90;2.43;;;;;;;;;;5033975;28;20176;-85
2022/05/28 05:40:20;;;;;;;6.57;1.73;;;;;;;;;;5022210;28;20507;-85
2022/05/28 05:43:24;;;;;;;11.20;2.33;;;;;;;;;;5033417;28;20180;-85
2022/05/28 05:46:28;;;;;;;6.63;1.80;;;;;;;;;;5022035;28;20220;-85
2022/05/28 05:49:32;;;;;;;7.90;1.77;;;;;;;;;;5033666;28;20180;-85
2022/05/28 05:52:36;;;;;;;9.27;1.97;;;;;;;;;;5033523;28;20180;-85
2022/05/28 05:55:40;;;;;;;6.40;1.90;;;;;;;;;;5032985;28;20216;-85
2022/05/28 05:58:44;;;;;;;9.97;1.97;;;;;;;;;;5022001;28;20176;-85
2022/05/28 06:01:49;;;;;;;5.73;1.70;;;;;;;;;;5021941;28;20180;-85
2022/05/28 06:04:54;;;;;;;8.13;1.90;;;;;;;;;;5031822;28;20176;-85
2022/05/28 06:07:58;;;;;;;7.27;2.10;;;;;;;;;;5021621;28;20211;-85
2022/05/28 06:11:02;;;;;;;4.73;1.43;;;;;;;;;;5043670;28;20544;-85
2022/05/28 06:14:06;;;;;;;8.77;2.20;;;;;;;;;;5022684;28;20543;-85
2022/05/28 06:17:10;;;;;;;7.37;1.70;;;;;;;;;;5021069;28;20693;-86
2022/05/28 06:20:14;;;;;;;4.83;1.97;;;;;;;;;;5032411;28;20184;-86
2022/05/28 06:23:18;;;;;;;4.77;1.70;;;;;;;;;;5021454;28;20180;-83
2022/05/28 06:26:22;;;;;;;5.50;1.67;;;;;;;;;;5043696;28;20555;-85
2022/05/28 06:29:28;;;;;;;7.30;1.40;;;;;;;;;;5032261;28;20208;-85
2022/05/28 06:32:32;;;;;;;9.03;1.73;;;;;;;;;;5032234;28;20196;-85
2022/05/28 06:35:37;;;;;;;7.00;2.20;;;;;;;;;;5032139;28;20219;-85
2022/05/28 06:38:41;;;;;;;10.10;2.30;;;;;;;;;;5020865;28;20180;-85
2022/05/28 06:41:45;;;;;;;7.37;2.10;;;;;;;;;;5021021;28;20187;-85
2022/05/28 06:44:55;;;;;;;5.13;1.50;;;;;;;;;;5021439;28;20180;-85
2022/05/28 06:47:59;;;;;;;9.33;1.90;;;;;;;;;;5043432;28;20204;-85
2022/05/28 06:51:04;;;;;;;8.80;1.90;;;;;;;;;;5020730;28;20188;-85
2022/05/28 06:54:08;;;;;;;5.93;1.83;;;;;;;;;;5031450;28;20196;-85
2022/05/28 06:57:12;;;;;;;7.83;1.90;;;;;;;;;;5043324;28;20219;-84
2022/05/28 07:00:17;;;;;;;10.87;2.57;;;;;;;;;;5031835;28;20173;-85
2022/05/28 07:03:25;;;;;;;5.90;1.90;;;;;;;;;;5020393;28;20192;-85
2022/05/28 07:06:31;;;;;;;5.03;1.73;;;;;;;;;;5020391;28;20223;-84
2022/05/28 07:09:35;;;;;;;8.40;1.73;;;;;;;;;;5040899;28;20203;-85
2022/05/28 07:12:40;;;;;;;6.73;1.90;;;;;;;;;;5042723;28;20184;-86
2022/05/28 07:15:44;;;;;;;7.33;2.13;;;;;;;;;;5030414;28;20227;-85
2022/05/28 07:18:48;;;;;;;7.40;1.43;;;;;;;;;;5031422;28;20196;-85
2022/05/28 07:21:52;;;;;;;4.60;1.60;;;;;;;;;;5030420;28;20180;-86
2022/05/28 07:24:56;;;;;;;7.03;1.57;;;;;;;;;;5030799;28;20180;-86
2022/05/28 07:28:24;;;;;;;6.97;1.53;;;;;;;;;;5030606;28;20203;-86
2022/05/28 07:31:25;;;;;;;9.27;1.70;;;;;;;;;;5042107;28;20176;-86
2022/05/28 07:34:29;;;;;;;4.97;1.77;;;;;;;;;;5009380;28;20533;-86
2022/05/28 07:37:33;;;;;;;6.10;1.60;;;;;;;;;;5022304;28;20185;-85
2022/05/28 07:40:37;;;;;;;8.70;1.50;;;;;;;;;;5022932;28;20177;-85
2022/05/28 07:43:42;;;;;;;5.80;1.83;;;;;;;;;;5022799;28;20672;-85
2022/05/28 07:46:46;;;;;;;5.27;1.20;;;;;;;;;;5018995;28;20551;-85
2022/05/28 07:49:50;;;;;;;5.50;1.20;;;;;;;;;;5010601;28;20200;-85
2022/05/28 07:52:55;;;;;;;6.50;1.10;;;;;;;;;;5034188;28;20188;-86
2022/05/28 07:56:01;;;;;;;5.60;1.63;;;;;;;;;;5030121;28;20215;-85
2022/05/28 07:59:05;;;;;;;4.13;1.57;;;;;;;;;;5030118;28;20184;-85
2022/05/28 08:02:09;;;;;;;4.43;1.43;;;;;;;;;;5019261;28;20200;-85
2022/05/28 08:05:14;;;;;;;4.70;1.13;;;;;;;;;;5018867;28;20216;-85
2022/05/28 08:08:21;;;;;;;3.93;1.23;;;;;;;;;;5030386;28;20669;-83
2022/05/28 08:11:26;;;;;;;5.13;1.60;;;;;;;;;;5030363;28;20191;-83
2022/05/28 08:14:29;;;;;;;3.33;1.20;;;;;;;;;;5028286;28;20643;-84
2022/05/28 08:17:34;;;;;;;5.67;1.30;;;;;;;;;;5019239;28;20192;-84
2022/05/28 08:24:01;;;;;;;6.53;1.23;;;;;;;;;;5019266;28;20193;-83
2022/05/28 08:27:05;;;;;;;4.93;1.10;;;;;;;;;;5041217;28;20219;-84
2022/05/28 08:30:09;;;;;;;6.73;1.20;;;;;;;;;;5021364;28;20569;-84
2022/05/28 08:33:15;;;;;;;3.63;1.17;;;;;;;;;;5025824;28;20200;-84
2022/05/28 08:36:20;;;;;;;2.90;1.10;;;;;;;;;;5017942;28;20208;-84
2022/05/28 08:39:24;;;;;;;2.77;0.87;;;;;;;;;;5029406;28;20184;-84
2022/05/28 08:42:29;;;;;;;5.57;0.80;;;;;;;;;;5018350;28;20524;-84
2022/05/28 08:45:32;;;;;;;2.63;0.70;;;;;;;;;;5017743;28;20216;-84
2022/05/28 08:48:49;;;;;;;2.03;0.80;;;;;;;;;;5029336;28;20212;-84
2022/05/28 08:52:12;;;;;;;3.67;0.90;;;;;;;;;;5029800;28;20192;-83
2022/05/28 08:55:23;;;;;;;2.73;0.87;;;;;;;;;;5018848;28;20690;-83
2022/05/28 08:58:29;;;;;;;2.57;1.00;;;;;;;;;;5029213;28;20192;-83
2022/05/28 09:01:38;;;;;;;1.20;0.80;;;;;;;;;;5029544;28;20184;-83
2022/05/28 09:04:43;;;;;;;2.97;1.00;;;;;;;;;;5029270;28;20192;-83
2022/05/28 09:07:48;;;;;;;3.50;1.00;;;;;;;;;;5023023;28;20179;-83
2022/05/28 09:10:54;;;;;;;2.53;0.77;;;;;;;;;;5017596;28;20661;-84
2022/05/28 09:14:03;;;;;;;5.87;1.00;;;;;;;;;;5018716;28;20181;-84
2022/05/28 09:17:38;;;;;;;3.63;0.90;;;;;;;;;;5028854;28;20221;-84
2022/05/28 09:20:46;;;;;;;7.13;1.20;;;;;;;;;;5020850;28;20175;-83
2022/05/28 09:23:57;;;;;;;3.33;0.80;;;;;;;;;;5021005;28;20177;-84
2022/05/28 09:27:14;;;;;;;4.63;0.97;;;;;;;;;;5027618;28;20556;-84
2022/05/28 09:30:35;;;;;;;2.83;0.60;;;;;;;;;;5028822;28;20215;-84
2022/05/28 09:34:01;;;;;;;5.05;0.98;;;;;;;;;;5017674;28;20544;-84
2022/05/28 09:37:11;;;;;;;2.07;0.70;;;;;;;;;;5029054;28;20223;-85
2022/05/28 09:40:18;;;;;;;2.53;0.80;;;;;;;;;;5019171;28;20185;-85
2022/05/28 09:44:00;;;;;;;1.70;0.77;;;;;;;;;;5043727;28;20185;-84
2022/05/28 09:47:16;;;;;;;2.40;0.97;;;;;;;;;;5032583;28;20570;-85
2022/05/28 09:50:27;;;;;;;1.60;0.70;;;;;;;;;;5031907;28;20221;-85
2022/05/28 09:57:09;;;;;;;2.87;1.00;;;;;;;;;;5043616;28;20557;-85
2022/05/28 10:00:14;;;;;;;3.77;0.80;;;;;;;;;;5025191;28;20182;-84
2022/05/28 10:06:53;;;;;;;2.77;0.67;;;;;;;;;;5017005;28;20208;-84
2022/05/28 10:09:57;;;;;;;2.90;0.90;;;;;;;;;;5011890;28;20215;-84
2022/05/28 10:13:11;;;;;;;2.57;0.67;;;;;;;;;;5005881;28;20185;-85
2022/05/28 10:16:34;;;;;;;2.40;0.80;;;;;;;;;;5004997;28;20232;-84
2022/05/28 10:19:42;;;;;;;3.40;1.17;;;;;;;;;;5000899;28;20176;-84
2022/05/28 10:22:48;;;;;;;1.57;0.60;;;;;;;;;;5016030;28;20193;-84
2022/05/28 10:25:53;;;;;;;1.97;0.70;;;;;;;;;;5042528;28;20691;-84
2022/05/28 10:29:04;;;;;;;2.63;0.60;;;;;;;;;;5018197;28;20681;-84
2022/05/28 10:32:21;;;;;;;1.50;0.70;;;;;;;;;;5043031;28;20172;-85
2022/05/28 10:35:27;;;;;;;2.20;0.80;;;;;;;;;;5031535;28;20684;-84
2022/05/28 10:38:31;;;;;;;2.78;0.50;;;;;;;;;;5031970;28;20190;-85
2022/05/28 10:41:36;;;;;;;2.55;0.80;;;;;;;;;;5022812;28;20188;-85
2022/05/28 10:44:42;;;;;;;1.92;1.00;;;;;;;;;;5034124;28;20188;-85
2022/05/28 10:47:49;;;;;;;1.88;0.70;;;;;;;;;;5023478;28;20529;-84
2022/05/28 10:51:11;;;;;;;1.83;0.70;;;;;;;;;;5017812;28;20184;-84
2022/05/28 10:54:42;;;;;;;2.57;0.80;;;;;;;;;;5036302;28;20183;-84
2022/05/28 10:58:24;;;;;;;3.37;0.90;;;;;;;;;;5040088;28;20186;-84
2022/05/28 11:01:57;;;;;;;3.27;0.90;;;;;;;;;;5018368;28;20538;-84
2022/05/28 11:05:25;;;;;;;3.77;0.90;;;;;;;;;;5029659;28;20188;-84
2022/05/28 11:08:39;;;;;;;3.23;0.80;;;;;;;;;;5028716;28;20192;-85
2022/05/28 11:12:13;;;;;;;3.17;1.17;;;;;;;;;;5027980;28;20190;-84
2022/05/28 11:15:39;;;;;;;4.60;0.90;;;;;;;;;;5027367;28;21518;-85
2022/05/28 11:18:50;;;;;;;2.70;1.00;;;;;;;;;;5016770;28;20185;-84
2022/05/28 11:22:04;;;;;;;5.20;0.97;;;;;;;;;;5026588;28;20526;-84
2022/05/28 11:25:29;;;;;;;4.20;1.00;;;;;;;;;;5039444;28;20191;-85
2022/05/28 11:28:56;;;;;;;4.57;0.90;;;;;;;;;;5017975;28;20190;-85
2022/05/28 11:32:06;;;;;;;4.00;0.90;;;;;;;;;;5014639;28;20198;-85
2022/05/28 11:35:33;;;;;;;3.90;0.80;;;;;;;;;;5017340;28;20221;-83
2022/05/28 11:38:40;;;;;;;1.57;0.90;;;;;;;;;;5022330;28;20191;-83
2022/05/28 11:41:54;;;;;;;2.67;0.80;;;;;;;;;;5021931;28;20208;-83
2022/05/28 11:45:01;;;;;;;2.50;0.90;;;;;;;;;;5016887;28;20190;-83
2022/05/28 11:48:17;;;;;;;3.90;1.07;;;;;;;;;;5017722;28;20658;-82
2022/05/28 11:51:30;;;;;;;3.30;1.13;;;;;;;;;;5041311;28;20684;-84
2022/05/28 11:54:41;;;;;;;3.83;1.00;;;;;;;;;;5042225;23;20272;-84
2022/05/28 11:58:06;;;;;;;1.87;0.73;;;;;;;;;;5015657;28;20185;-84
2022/05/28 12:01:16;;;;;;;2.17;0.90;;;;;;;;;;5043718;28;20184;-83
2022/05/28 12:04:20;;;;;;;5.27;1.17;;;;;;;;;;5022897;28;20217;-84
2022/05/28 12:07:38;;;;;;;1.60;0.73;;;;;;;;;;5012462;28;20523;-86
2022/05/28 12:10:51;;;;;;;4.28;1.00;;;;;;;;;;5019295;28;20227;-86
2022/05/28 12:13:58;;;;;;;2.83;0.90;;;;;;;;;;5021095;28;20219;-85
2022/05/28 12:17:09;;;;;;;3.73;0.80;;;;;;;;;;5018695;28;20196;-84
2022/05/28 12:20:13;;;;;;;1.93;0.90;;;;;;;;;;5029454;28;20199;-84
2022/05/28 12:23:48;;;;;;;2.33;0.90;;;;;;;;;;5021812;28;20218;-85
2022/05/28 12:30:33;;;;;;;1.80;0.70;;;;;;;;;;5020933;28;20695;-84
2022/05/28 12:33:56;;;;;;;3.43;0.90;;;;;;;;;;5010025;28;20223;-85
2022/05/28 12:37:02;;;;;;;4.10;1.10;;;;;;;;;;5021983;28;20181;-81
2022/05/28 12:40:33;;;;;;;5.83;0.90;;;;;;;;;;4998820;28;20173;-81
2022/05/28 12:43:38;;;;;;;2.47;0.80;;;;;;;;;;5021563;28;20220;-81
2022/05/28 12:46:49;;;;;;;2.93;0.87;;;;;;;;;;5028869;28;20188;-81
2022/05/28 12:50:11;;;;;;;2.07;0.70;;;;;;;;;;5041110;28;20208;-81
2022/05/28 12:53:19;;;;;;;4.77;0.93;;;;;;;;;;5029517;28;20224;-82
2022/05/28 12:56:32;;;;;;;12.07;1.90;;;;;;;;;;5005313;28;20193;-81
2022/05/28 12:59:46;;;;;;;3.67;0.90;;;;;;;;;;5010360;28;20196;-81
2022/05/28 13:02:52;;;;;;;3.50;1.00;;;;;;;;;;5035408;28;20213;-80
2022/05/28 13:06:11;;;;;;;2.33;0.80;;;;;;;;;;5022699;28;20185;-81
2022/05/28 13:09:20;;;;;;;2.30;0.80;;;;;;;;;;5020775;28;20656;-82
2022/05/28 13:12:31;;;;;;;2.30;0.97;;;;;;;;;;5032170;28;20188;-82
2022/05/28 13:16:02;;;;;;;4.07;0.90;;;;;;;;;;5033642;28;20538;-82
2022/05/28 13:19:21;;;;;;;2.03;0.63;;;;;;;;;;5001970;28;20633;-82
2022/05/28 13:22:43;;;;;;;1.70;0.77;;;;;;;;;;5025257;28;20193;-82
2022/05/28 13:26:14;;;;;;;3.83;0.93;;;;;;;;;;5012922;28;20647;-82
2022/05/28 13:29:40;;;;;;;4.30;0.90;;;;;;;;;;5012891;28;20196;-82
2022/05/28 13:32:51;;;;;;;0.93;0.60;;;;;;;;;;5018474;28;20221;-82
2022/05/28 13:35:58;;;;;;;2.40;0.87;;;;;;;;;;5041199;28;20185;-83
2022/05/28 13:39:05;;;;;;;5.57;0.90;;;;;;;;;;5044125;28;20185;-84
2022/05/28 13:42:11;;;;;;;2.93;0.77;;;;;;;;;;5005527;28;20185;-83
2022/05/28 13:45:25;;;;;;;3.73;1.20;;;;;;;;;;5030919;28;20184;-82
2022/05/28 13:48:29;;;;;;;2.63;0.87;;;;;;;;;;5012692;28;20200;-82
2022/05/28 13:51:36;;;;;;;2.03;0.90;;;;;;;;;;5023090;28;20220;-83
2022/05/28 13:54:40;;;;;;;5.43;1.00;;;;;;;;;;5032328;28;20232;-82
2022/05/28 13:57:46;;;;;;;2.33;0.73;;;;;;;;;;5032489;28;20630;-82
2022/05/28 14:01:14;;;;;;;1.20;0.63;;;;;;;;;;5052295;28;20184;-84
2022/05/28 14:04:21;;;;;;;3.43;0.87;;;;;;;;;;5020942;28;20254;-82
2022/05/28 14:07:30;;;;;;;1.70;0.90;;;;;;;;;;5005093;28;20180;-83
2022/05/28 14:10:38;;;;;;;1.70;0.70;;;;;;;;;;5025034;28;20540;-83
2022/05/28 14:13:52;;;;;;;5.03;0.87;;;;;;;;;;5030248;28;20211;-82
2022/05/28 14:16:59;;;;;;;2.37;0.80;;;;;;;;;;5011118;28;20184;-83
2022/05/28 14:20:07;;;;;;;2.43;0.53;;;;;;;;;;5014604;28;20197;-83
2022/05/28 14:23:11;;;;;;;2.60;1.00;;;;;;;;;;5020631;28;20222;-83
2022/05/28 14:26:18;;;;;;;1.77;0.80;;;;;;;;;;5019729;28;20196;-83
2022/05/28 14:29:29;;;;;;;1.80;0.73;;;;;;;;;;5001492;28;20181;-83
2022/05/28 14:32:39;;;;;;;1.60;0.60;;;;;;;;;;5035439;28;20198;-84
2022/05/28 14:35:45;;;;;;;1.77;0.60;;;;;;;;;;5035343;28;20665;-86
2022/05/28 14:38:50;;;;;;;2.57;0.63;;;;;;;;;;5034978;28;20186;-83
2022/05/28 14:42:02;;;;;;;1.23;0.70;;;;;;;;;;5052978;28;20189;-84
2022/05/28 14:45:33;;;;;;;1.37;0.60;;;;;;;;;;5020836;28;20189;-83
2022/05/28 14:48:38;;;;;;;1.13;0.63;;;;;;;;;;5019410;28;20191;-83
2022/05/28 14:51:42;;;;;;;2.50;0.83;;;;;;;;;;5037900;28;20224;-83
2022/05/28 14:54:55;;;;;;;2.80;0.90;;;;;;;;;;5024402;28;20221;-83
2022/05/28 14:58:17;;;;;;;2.03;0.97;;;;;;;;;;5031890;28;20195;-84
2022/05/28 15:01:26;;;;;;;1.37;0.53;;;;;;;;;;5025317;28;20186;-84
2022/05/28 15:04:33;;;;;;;2.77;0.90;;;;;;;;;;5029005;28;20217;-83
2022/05/28 15:07:47;;;;;;;2.13;0.90;;;;;;;;;;5011459;28;20196;-83
2022/05/28 15:10:54;;;;;;;2.60;0.87;;;;;;;;;;5022620;28;20214;-83
2022/05/28 15:14:24;;;;;;;1.57;0.70;;;;;;;;;;5010964;28;20220;-84
2022/05/28 15:17:28;;;;;;;4.20;1.00;;;;;;;;;;5000378;28;20631;-83
2022/05/28 15:20:32;;;;;;;1.83;0.83;;;;;;;;;;5010988;28;20181;-84
2022/05/28 15:23:36;;;;;;;2.50;0.87;;;;;;;;;;5022075;28;20687;-83
2022/05/28 15:26:41;;;;;;;4.90;1.03;;;;;;;;;;5010948;28;20181;-83
2022/05/28 15:29:46;;;;;;;2.10;0.90;;;;;;;;;;5022038;28;20184;-83
2022/05/28 15:32:51;;;;;;;1.27;0.63;;;;;;;;;;5010701;28;20221;-83
2022/05/28 15:39:18;;;;;;;1.90;0.80;;;;;;;;;;5034666;28;20185;-85
2022/05/28 15:42:27;;;;;;;1.90;1.00;;;;;;;;;;5022972;28;20189;-83
2022/05/28 15:45:31;;;;;;;2.10;0.80;;;;;;;;;;5021720;28;20197;-83
2022/05/28 15:48:36;;;;;;;3.20;1.00;;;;;;;;;;5022114;28;20177;-83
2022/05/28 15:51:40;;;;;;;1.87;0.70;;;;;;;;;;5021940;28;20209;-83
2022/05/28 15:54:45;;;;;;;3.50;0.90;;;;;;;;;;5018545;28;20224;-83
2022/05/28 15:57:55;;;;;;;2.23;0.73;;;;;;;;;;5032239;28;20180;-83
2022/05/28 16:01:15;;;;;;;1.23;0.70;;;;;;;;;;5009163;28;20181;-83
2022/05/28 16:04:19;;;;;;;3.00;0.93;;;;;;;;;;5031917;28;20232;-83
2022/05/28 16:07:25;;;;;;;1.63;0.70;;;;;;;;;;5031580;28;20196;-83
2022/05/28 16:10:29;;;;;;;1.27;0.60;;;;;;;;;;5020653;28;20208;-83
2022/05/28 16:13:33;;;;;;;1.77;0.70;;;;;;;;;;5029702;28;20227;-83
2022/05/28 16:16:38;;;;;;;6.30;1.03;;;;;;;;;;5018861;28;20188;-83
2022/05/28 16:19:42;;;;;;;1.50;0.63;;;;;;;;;;5029141;28;20188;-83
2022/05/28 16:22:46;;;;;;;3.17;0.80;;;;;;;;;;5032159;28;20217;-83
2022/05/28 16:25:51;;;;;;;1.60;0.70;;;;;;;;;;5037376;28;20533;-83
2022/05/28 16:28:56;;;;;;;1.40;0.70;;;;;;;;;;5009820;28;20189;-83
2022/05/28 16:32:01;;;;;;;3.47;0.90;;;;;;;;;;5023957;28;20216;-83
2022/05/28 16:35:05;;;;;;;2.37;0.73;;;;;;;;;;5021398;28;20181;-83
2022/05/28 16:38:09;;;;;;;2.97;0.60;;;;;;;;;;5032949;28;20200;-83
2022/05/28 16:41:13;;;;;;;3.33;0.80;;;;;;;;;;5010436;28;20181;-83
2022/05/28 16:44:18;;;;;;;2.80;0.70;;;;;;;;;;5022461;28;20216;-81
2022/05/28 16:47:23;;;;;;;2.33;0.83;;;;;;;;;;5014980;28;20188;-83
2022/05/28 16:50:28;;;;;;;2.63;0.90;;;;;;;;;;5013360;28;20183;-82
2022/05/28 16:53:33;;;;;;;1.33;0.70;;;;;;;;;;5034792;28;20228;-82
2022/05/28 16:56:40;;;;;;;3.67;0.80;;;;;;;;;;5033033;28;20196;-82
2022/05/28 16:59:44;;;;;;;3.53;0.50;;;;;;;;;;5042859;28;20188;-82
2022/05/28 17:02:48;;;;;;;2.47;0.80;;;;;;;;;;5033582;28;20215;-82
2022/05/28 17:05:52;;;;;;;2.17;0.70;;;;;;;;;;5042539;28;20200;-83
2022/05/28 17:08:56;;;;;;;1.77;0.80;;;;;;;;;;5040186;28;20185;-82
2022/05/28 17:12:00;;;;;;;2.97;0.67;;;;;;;;;;5016778;28;20211;-83
2022/05/28 17:15:05;;;;;;;2.73;0.80;;;;;;;;;;5012173;28;20640;-82
2022/05/28 17:18:09;;;;;;;2.40;0.97;;;;;;;;;;5023445;28;20199;-82
2022/05/28 17:21:32;;;;;;;2.43;0.87;;;;;;;;;;5016605;28;20185;-82
2022/05/28 17:24:37;;;;;;;1.77;0.70;;;;;;;;;;5050737;28;20217;-82
2022/05/28 17:27:42;;;;;;;1.57;0.80;;;;;;;;;;5029597;28;20647;-83
2022/05/28 17:30:48;;;;;;;2.23;0.87;;;;;;;;;;5032508;28;20188;-82
2022/05/28 17:33:53;;;;;;;2.30;0.80;;;;;;;;;;5036068;28;20697;-82
2022/05/28 17:36:58;;;;;;;1.70;0.87;;;;;;;;;;5018756;28;20192;-82
2022/05/28 17:40:03;;;;;;;1.63;0.73;;;;;;;;;;5027680;28;20200;-81
2022/05/28 17:43:07;;;;;;;3.80;1.17;;;;;;;;;;5012224;28;20208;-82
2022/05/28 17:46:15;;;;;;;1.40;0.80;;;;;;;;;;5034499;28;20626;-81
2022/05/28 17:49:21;;;;;;;2.80;0.73;;;;;;;;;;5034307;28;20642;-82
2022/05/28 17:52:25;;;;;;;2.50;0.80;;;;;;;;;;5029981;28;20229;-81
2022/05/28 17:55:31;;;;;;;1.90;1.00;;;;;;;;;;5050591;22;20221;-82
2022/05/28 17:58:35;;;;;;;1.93;0.97;;;;;;;;;;5006610;28;20181;-83
2022/05/28 18:01:43;;;;;;;1.93;0.97;;;;;;;;;;4999772;28;20181;-83
2022/05/28 18:04:50;;;;;;;2.70;0.80;;;;;;;;;;5012338;28;20185;-82
2022/05/28 18:07:55;;;;;;;1.27;0.87;;;;;;;;;;5003164;28;20197;-82
2022/05/28 18:10:59;;;;;;;2.00;0.80;;;;;;;;;;4981706;28;20214;-82
2022/05/28 18:14:04;;;;;;;2.10;0.70;;;;;;;;;;4991869;28;20193;-82
2022/05/28 18:17:12;;;;;;;1.57;0.70;;;;;;;;;;4992120;28;20221;-82
2022/05/28 18:20:33;;;;;;;1.37;0.90;;;;;;;;;;4992645;28;20189;-82
2022/05/28 18:23:38;;;;;;;1.47;0.83;;;;;;;;;;4972971;28;20182;-83
2022/05/28 18:26:42;;;;;;;1.87;0.70;;;;;;;;;;4989891;28;20553;-82
2022/05/28 18:29:45;;;;;;;1.47;0.90;;;;;;;;;;4974150;28;20190;-82
2022/05/28 18:32:50;;;;;;;1.60;0.80;;;;;;;;;;4991934;28;20213;-82
2022/05/28 18:35:55;;;;;;;2.83;1.10;;;;;;;;;;4992013;28;20213;-82
2022/05/28 18:39:01;;;;;;;2.20;0.90;;;;;;;;;;4978869;28;20194;-82
2022/05/28 18:42:06;;;;;;;3.90;1.10;;;;;;;;;;4991170;28;20197;-82
2022/05/28 18:45:10;;;;;;;1.63;0.77;;;;;;;;;;4991646;28;20297;-82
2022/05/28 18:48:15;;;;;;;1.87;0.93;;;;;;;;;;4991214;28;20189;-82
2022/05/28 18:51:24;;;;;;;3.57;1.13;;;;;;;;;;4991728;28;20587;-82
2022/05/28 18:54:28;;;;;;;5.90;1.33;;;;;;;;;;4980825;28;20177;-82
2022/05/28 18:57:32;;;;;;;2.03;0.90;;;;;;;;;;4973386;28;20190;-82
2022/05/28 19:00:38;;;;;;;2.93;0.80;;;;;;;;;;4991921;28;20186;-83
2022/05/28 19:03:42;;;;;;;1.63;0.90;;;;;;;;;;4990771;28;20189;-81
2022/05/28 19:06:53;;;;;;;2.10;0.80;;;;;;;;;;4979075;28;20220;-82